map of AOR home
AOR - Airport
Location
City:  Alor Setar, Kedah, Malaysia
Name:Sultan Abdul Halim
ICAO:WMKA
IATA:AOR

Details
Type:Airport (Aerodrome, Airfield)
Use:Public/Civil, Military
Latitude:6°11'23"N (6.189667)
Longitude:100°23'53"E (100.398183)
Datum:WGS 1984
Elevation:15 ft (5 m)
Variation:0.22°W (WMM2015 magnetic declination)
0.01° annual change
Runways:1
Longest:9005 × 151 ft (2745 × 46 m), paved

Time
Time Zone:UTC+8
Local Time:

Weather
METAR:WMKA 160200Z VRB02KT 9999 FEW017CB SCT140 BKN280 28/25 Q1013

Related Locations
Nearby:
Farthest:CIX: 12388 mi / 19937 km
Chiclayo [Captaán FAP José Abelardo Quiñones Gonzáles Intl], LAM, PE

Find:

   beyond  
but within

Other Information
Maps:
NOTAMs:
Links:
Sources:

  
  • flag of Malaysia
  • flag of Kedah
  

Sectional Chart

Flight Planning
at skyvector.com

Satellite Image

Google Maps Satellite view

 

Copyright © 2004-2018 Karl L. Swartz. All rights reserved.
The Great Circle Mapper name and logo are trademarks of the Great Circle Mapper.
All other trademarks mentioned herein belong to their respective owners.
Please see credits for attibutions and further copyright information.

  Follow gcmap on Facebook Follow gcmap on Twitter Follow gcmap on Google+ GCmap on LinkedIn

hCard Microformat

Geo Microformat